createdAt,value
2023-05-24T00:00:14.278Z,27.80
2023-05-24T00:02:44.661Z,27.80
2023-05-24T00:05:16.313Z,27.80
2023-05-24T00:07:46.514Z,27.80
2023-05-24T00:10:16.470Z,27.90
2023-05-24T00:12:46.459Z,28.00
2023-05-24T00:15:16.304Z,28.00
2023-05-24T00:17:46.731Z,28.00
2023-05-24T00:20:16.752Z,28.10
2023-05-24T00:22:47.740Z,28.10
2023-05-24T00:25:18.105Z,28.10
2023-05-24T00:27:48.786Z,28.20
2023-05-24T00:30:19.514Z,28.30
2023-05-24T00:32:50.778Z,28.20
2023-05-24T00:35:20.908Z,28.10
2023-05-24T00:37:50.795Z,28.10
2023-05-24T00:40:20.889Z,28.00
2023-05-24T00:42:52.953Z,28.00
2023-05-24T00:45:23.192Z,28.10
2023-05-24T00:47:53.199Z,28.00
2023-05-24T00:50:23.838Z,28.00
2023-05-24T00:52:54.144Z,28.00
2023-05-24T00:55:24.580Z,28.10
2023-05-24T00:57:56.542Z,28.20
2023-05-24T01:00:27.960Z,28.30
2023-05-24T01:02:58.856Z,28.20
2023-05-24T01:05:29.381Z,28.20
2023-05-24T01:08:16.533Z,28.20
2023-05-24T01:11:12.791Z,28.20
2023-05-24T01:14:22.813Z,28.30
2023-05-24T01:17:32.970Z,28.40
2023-05-24T01:20:10.521Z,28.50
2023-05-24T01:23:09.732Z,28.50
2023-05-24T01:26:19.180Z,28.50
2023-05-24T01:28:51.300Z,28.50
2023-05-24T01:31:23.577Z,28.60
2023-05-24T01:33:53.747Z,28.70
2023-05-24T01:36:23.473Z,28.90
2023-05-24T01:38:53.847Z,29.00
2023-05-24T01:41:49.503Z,29.20
2023-05-24T01:44:51.530Z,29.00
2023-05-24T01:47:51.267Z,29.10
2023-05-24T01:50:33.676Z,29.20
2023-05-24T01:53:09.479Z,29.20
2023-05-24T01:55:40.615Z,29.20
2023-05-24T01:58:13.159Z,29.10
2023-05-24T02:00:44.940Z,29.10
2023-05-24T02:03:17.671Z,29.20
2023-05-24T02:05:48.531Z,29.20
2023-05-24T02:08:18.435Z,29.30
2023-05-24T02:10:48.514Z,29.30
2023-05-24T02:13:19.765Z,29.40
2023-05-24T02:15:50.121Z,29.40
2023-05-24T02:18:23.340Z,29.50
2023-05-24T02:20:53.851Z,29.50
2023-05-24T02:23:25.168Z,29.50
2023-05-24T02:25:56.951Z,29.60
2023-05-24T02:28:27.020Z,29.70
2023-05-24T02:30:56.997Z,29.90
2023-05-24T02:33:27.541Z,30.00
2023-05-24T02:35:58.026Z,30.20
2023-05-24T02:38:28.494Z,30.30
2023-05-24T02:40:58.574Z,30.40
2023-05-24T02:43:28.665Z,30.30
2023-05-24T02:45:58.841Z,30.30
2023-05-24T02:48:29.002Z,30.40
2023-05-24T02:50:59.151Z,30.00
2023-05-24T02:53:29.205Z,30.40
2023-05-24T02:55:59.395Z,30.90
2023-05-24T02:58:33.316Z,31.00
2023-05-24T03:01:03.485Z,31.00
2023-05-24T03:03:33.413Z,31.20
2023-05-24T03:06:04.032Z,31.20
2023-05-24T03:08:36.354Z,31.20
2023-05-24T03:11:08.173Z,31.40
2023-05-24T03:13:38.161Z,31.80
2023-05-24T03:16:08.398Z,31.90
2023-05-24T03:18:38.584Z,32.10
2023-05-24T03:21:09.092Z,31.90
2023-05-24T03:23:39.296Z,31.90
2023-05-24T03:26:09.376Z,32.10
2023-05-24T03:28:39.503Z,32.10
2023-05-24T03:31:10.916Z,32.30
2023-05-24T03:33:41.659Z,32.40
2023-05-24T03:36:11.670Z,32.40
2023-05-24T03:38:41.991Z,32.60
2023-05-24T03:41:12.155Z,32.40
2023-05-24T03:43:42.154Z,32.30
2023-05-24T03:46:17.985Z,32.70
2023-05-24T03:48:48.202Z,32.80
2023-05-24T03:51:18.329Z,32.90
2023-05-24T03:53:48.402Z,32.90
2023-05-24T03:56:18.428Z,33.00
2023-05-24T03:58:48.415Z,33.30
2023-05-24T04:01:32.061Z,33.20
2023-05-24T04:04:04.735Z,32.80
2023-05-24T04:06:34.670Z,33.20
2023-05-24T04:09:07.214Z,33.40
2023-05-24T04:11:37.870Z,32.90
2023-05-24T04:14:07.891Z,33.10
2023-05-24T04:16:41.293Z,33.40
2023-05-24T04:19:11.303Z,33.20
2023-05-24T04:21:41.299Z,33.60
2023-05-24T04:24:11.601Z,33.70
2023-05-24T04:26:41.719Z,33.80
2023-05-24T04:29:11.725Z,33.90
2023-05-24T04:31:46.313Z,33.90
2023-05-24T04:34:16.751Z,34.00
2023-05-24T04:36:46.532Z,34.10
2023-05-24T04:39:17.390Z,34.20
2023-05-24T04:41:47.949Z,34.20
2023-05-24T04:44:17.794Z,34.10
2023-05-24T04:46:47.879Z,34.20
2023-05-24T04:49:17.834Z,34.30
2023-05-24T04:51:48.707Z,34.20
2023-05-24T04:54:19.771Z,34.40
2023-05-24T04:56:50.413Z,34.60
2023-05-24T04:59:20.407Z,34.90
2023-05-24T05:01:50.444Z,35.20
2023-05-24T05:04:20.734Z,35.30
2023-05-24T05:06:50.881Z,35.30
2023-05-24T05:09:21.320Z,35.40
2023-05-24T05:11:51.849Z,35.30
2023-05-24T05:14:21.746Z,35.10
2023-05-24T05:16:51.902Z,35.20
2023-05-24T05:19:22.436Z,35.10
2023-05-24T05:21:52.414Z,35.60
2023-05-24T05:24:23.374Z,35.80
2023-05-24T05:26:53.498Z,35.90
2023-05-24T05:29:24.453Z,35.80
2023-05-24T05:31:55.068Z,36.00
2023-05-24T05:34:24.997Z,36.10
2023-05-24T05:36:55.086Z,35.90
2023-05-24T05:39:24.881Z,35.70
2023-05-24T05:41:55.493Z,35.70
2023-05-24T05:44:25.442Z,35.50
2023-05-24T05:46:55.588Z,35.50
2023-05-24T05:49:25.531Z,35.40
2023-05-24T05:51:56.245Z,35.60
2023-05-24T05:54:26.434Z,35.90
2023-05-24T05:56:56.259Z,35.90
2023-05-24T05:59:26.476Z,35.50
2023-05-24T06:01:56.292Z,35.60
2023-05-24T06:04:26.473Z,35.50
2023-05-24T06:06:56.423Z,35.50
2023-05-24T06:09:26.675Z,35.30
2023-05-24T06:11:56.708Z,35.30
2023-05-24T06:14:26.692Z,35.50
2023-05-24T06:16:58.020Z,35.60
2023-05-24T06:19:29.739Z,35.50
2023-05-24T06:21:59.627Z,35.50
2023-05-24T06:24:30.134Z,35.40
2023-05-24T06:27:02.346Z,35.40
2023-05-24T06:29:33.364Z,35.40
2023-05-24T06:32:03.392Z,35.50
2023-05-24T06:34:34.100Z,35.50
2023-05-24T06:37:04.125Z,35.50
2023-05-24T06:39:33.902Z,35.60
2023-05-24T06:42:04.146Z,35.30
2023-05-24T06:44:39.080Z,35.30
2023-05-24T06:47:10.804Z,35.50
2023-05-24T06:49:40.810Z,35.80
2023-05-24T06:52:10.690Z,36.10
2023-05-24T06:54:44.513Z,36.30
2023-05-24T06:57:14.599Z,36.30
2023-05-24T06:59:44.422Z,36.10
2023-05-24T07:02:14.742Z,35.80
2023-05-24T07:04:44.573Z,35.90
2023-05-24T07:07:15.762Z,36.40
2023-05-24T07:09:46.036Z,36.20
2023-05-24T07:12:15.944Z,36.40
2023-05-24T07:14:45.913Z,36.90
2023-05-24T07:17:15.742Z,37.20
2023-05-24T07:19:45.903Z,37.30
2023-05-24T07:22:15.762Z,36.90
2023-05-24T07:24:45.812Z,36.40
2023-05-24T07:27:15.674Z,36.20
2023-05-24T07:29:48.111Z,36.30
2023-05-24T07:32:18.978Z,36.50
2023-05-24T07:34:49.699Z,36.40
2023-05-24T07:37:19.462Z,35.80
2023-05-24T07:39:50.172Z,35.80
2023-05-24T07:42:20.322Z,36.30
2023-05-24T07:44:50.277Z,36.50
2023-05-24T07:47:20.324Z,36.20
2023-05-24T07:49:50.213Z,36.10
2023-05-24T07:52:20.223Z,36.20
2023-05-24T07:54:49.993Z,36.10
2023-05-24T07:57:21.493Z,36.00
2023-05-24T07:59:51.517Z,35.80
2023-05-24T08:02:21.419Z,35.60
2023-05-24T08:04:51.649Z,35.20
2023-05-24T08:07:21.541Z,34.30
2023-05-24T08:09:51.864Z,33.60
2023-05-24T08:12:21.696Z,32.70
2023-05-24T08:14:51.881Z,32.80
2023-05-24T08:17:21.747Z,32.80
2023-05-24T08:19:51.912Z,32.70
2023-05-24T08:22:22.019Z,32.60
2023-05-24T08:24:53.083Z,32.60
2023-05-24T08:27:24.162Z,32.60
2023-05-24T08:29:57.128Z,32.70
2023-05-24T08:32:28.385Z,32.60
2023-05-24T08:35:14.768Z,32.40
2023-05-24T08:37:49.709Z,32.60
2023-05-24T08:40:20.004Z,32.60
2023-05-24T08:42:50.967Z,32.60
2023-05-24T08:45:23.346Z,32.70
2023-05-24T08:47:54.116Z,32.80
2023-05-24T08:50:25.222Z,32.60
2023-05-24T08:52:56.308Z,32.70
2023-05-24T08:55:26.610Z,33.10
2023-05-24T08:57:58.019Z,33.20
2023-05-24T09:00:28.484Z,33.10
2023-05-24T09:03:00.807Z,32.60
2023-05-24T09:05:32.178Z,32.60
2023-05-24T09:08:03.687Z,32.60
2023-05-24T09:10:49.310Z,32.60
2023-05-24T09:13:26.717Z,32.90
2023-05-24T09:15:57.032Z,33.00
2023-05-24T09:18:27.041Z,32.90
2023-05-24T09:20:57.242Z,33.00
2023-05-24T09:23:28.953Z,33.10
2023-05-24T09:26:00.296Z,33.00
2023-05-24T09:28:35.054Z,32.80
2023-05-24T09:31:08.132Z,32.90
2023-05-24T09:33:38.805Z,32.70
2023-05-24T09:36:10.242Z,32.80
2023-05-24T09:38:40.412Z,32.60
2023-05-24T09:41:12.505Z,32.40
2023-05-24T09:43:52.068Z,32.50
2023-05-24T09:46:23.209Z,32.80
2023-05-24T09:49:06.558Z,32.70
2023-05-24T09:51:40.542Z,32.70
2023-05-24T09:54:11.530Z,32.40
2023-05-24T09:56:42.424Z,32.40
2023-05-24T09:59:12.703Z,32.30
2023-05-24T10:01:42.633Z,32.30
2023-05-24T10:04:15.737Z,32.20
2023-05-24T10:06:46.399Z,32.20
2023-05-24T10:09:17.255Z,32.10
2023-05-24T10:11:48.129Z,32.20
2023-05-24T10:14:19.647Z,32.20
2023-05-24T10:16:49.857Z,32.20
2023-05-24T10:19:20.068Z,32.00
2023-05-24T10:21:51.980Z,31.70
2023-05-24T10:24:27.878Z,31.80
2023-05-24T10:27:00.531Z,31.80
2023-05-24T10:29:55.574Z,32.00
2023-05-24T10:32:26.781Z,31.90
2023-05-24T10:34:57.070Z,32.00
2023-05-24T10:37:28.639Z,32.00
2023-05-24T10:39:58.896Z,31.90
2023-05-24T10:42:29.043Z,32.00
2023-05-24T10:44:59.401Z,32.00
2023-05-24T10:47:32.284Z,32.00
2023-05-24T10:50:18.306Z,32.20
2023-05-24T10:52:49.028Z,32.20
2023-05-24T10:55:21.891Z,32.00
2023-05-24T10:57:52.029Z,32.20
2023-05-24T11:00:47.478Z,32.40
2023-05-24T11:03:25.120Z,32.40
2023-05-24T11:05:57.361Z,32.40
2023-05-24T11:08:37.215Z,32.40
2023-05-24T11:11:25.429Z,32.30
2023-05-24T11:14:03.260Z,32.20
2023-05-24T11:16:41.339Z,32.30
2023-05-24T11:19:26.934Z,32.20
2023-05-24T11:22:02.802Z,32.20
2023-05-24T11:24:34.240Z,32.20
2023-05-24T11:27:05.220Z,32.00
2023-05-24T11:29:42.020Z,32.00
2023-05-24T11:32:13.139Z,31.90
2023-05-24T11:34:46.720Z,31.80
2023-05-24T11:37:18.974Z,31.90
2023-05-24T11:39:56.486Z,32.00
2023-05-24T11:42:26.475Z,31.80
2023-05-24T11:44:57.498Z,31.80
2023-05-24T11:47:27.904Z,31.70
2023-05-24T11:49:57.817Z,31.70
2023-05-24T11:52:28.007Z,31.80
2023-05-24T11:54:57.930Z,31.70
2023-05-24T11:57:41.677Z,31.70
2023-05-24T12:00:18.504Z,31.70
2023-05-24T12:02:50.702Z,31.70
2023-05-24T12:05:21.901Z,31.70
2023-05-24T12:08:12.329Z,31.70
2023-05-24T12:10:45.129Z,31.70
2023-05-24T12:13:29.090Z,31.60
2023-05-24T12:15:59.743Z,31.50
2023-05-24T12:18:30.008Z,31.50
2023-05-24T12:21:00.201Z,31.40
2023-05-24T12:23:33.331Z,31.50
2023-05-24T12:26:05.690Z,31.50
2023-05-24T12:28:38.035Z,31.50
2023-05-24T12:31:09.174Z,31.50
2023-05-24T12:33:39.899Z,31.50
2023-05-24T12:36:10.376Z,31.50
2023-05-24T12:38:40.387Z,31.40
2023-05-24T12:41:14.005Z,31.10
2023-05-24T12:43:45.853Z,31.10
2023-05-24T12:46:16.485Z,31.10
2023-05-24T12:48:47.367Z,31.10
2023-05-24T12:51:18.032Z,31.10
2023-05-24T12:53:48.274Z,31.20
2023-05-24T12:56:18.279Z,31.20
2023-05-24T12:58:49.316Z,31.20
2023-05-24T13:01:19.662Z,31.30
2023-05-24T13:03:49.625Z,31.20
2023-05-24T13:06:19.960Z,31.00
2023-05-24T13:08:50.371Z,31.00
2023-05-24T13:11:20.988Z,31.10
2023-05-24T13:13:51.252Z,31.00
2023-05-24T13:16:21.422Z,31.10
2023-05-24T13:18:52.833Z,31.00
2023-05-24T13:21:23.984Z,30.90
2023-05-24T13:23:54.701Z,30.80
2023-05-24T13:26:25.865Z,30.80
2023-05-24T13:29:18.280Z,30.70
2023-05-24T13:31:47.011Z,30.50
2023-05-24T13:34:17.453Z,30.40
2023-05-24T13:36:47.956Z,30.40
2023-05-24T13:39:18.325Z,30.30
2023-05-24T13:41:52.512Z,30.40
2023-05-24T13:44:23.436Z,30.40
2023-05-24T13:46:53.868Z,30.40
2023-05-24T13:49:24.155Z,30.30
2023-05-24T13:51:57.991Z,30.40
2023-05-24T13:54:29.376Z,30.50
2023-05-24T13:56:59.635Z,30.40
2023-05-24T13:59:29.843Z,30.40
2023-05-24T14:01:59.973Z,30.40
2023-05-24T14:04:32.168Z,30.30
2023-05-24T14:07:03.056Z,30.30
2023-05-24T14:09:33.542Z,30.30
2023-05-24T14:12:04.877Z,30.30
2023-05-24T14:17:08.180Z,30.20
2023-05-24T14:19:38.574Z,30.30
2023-05-24T14:22:09.096Z,30.20
2023-05-24T14:24:39.128Z,30.10
2023-05-24T14:27:08.898Z,30.10
2023-05-24T14:29:39.028Z,30.30
2023-05-24T14:32:08.988Z,30.20
2023-05-24T14:34:39.111Z,30.20
2023-05-24T14:37:09.062Z,30.20
2023-05-24T14:39:39.449Z,30.10
2023-05-24T14:42:10.068Z,30.10
2023-05-24T14:44:40.375Z,30.10
2023-05-24T14:47:10.217Z,30.10
2023-05-24T14:49:40.192Z,30.00
2023-05-24T14:52:10.018Z,30.00
2023-05-24T14:54:40.123Z,30.00
2023-05-24T14:57:10.360Z,30.00
2023-05-24T14:59:40.499Z,29.90
2023-05-24T15:02:10.354Z,29.90
2023-05-24T15:04:41.821Z,29.90
2023-05-24T15:07:12.032Z,29.80
2023-05-24T15:09:41.820Z,29.80
2023-05-24T15:12:11.846Z,29.80
2023-05-24T15:14:41.647Z,29.70
2023-05-24T15:17:12.969Z,29.60
2023-05-24T15:19:43.365Z,29.70
2023-05-24T15:22:13.412Z,29.70
2023-05-24T15:24:43.458Z,29.70
2023-05-24T15:27:13.410Z,29.70
2023-05-24T15:29:45.196Z,29.60
2023-05-24T15:32:15.917Z,29.60
2023-05-24T15:34:46.125Z,29.60
2023-05-24T15:37:15.989Z,29.60
2023-05-24T15:39:46.000Z,29.70
2023-05-24T15:42:17.537Z,29.70
2023-05-24T15:44:48.007Z,29.60
2023-05-24T15:47:20.391Z,29.40
2023-05-24T15:49:52.771Z,29.40
2023-05-24T15:52:22.706Z,29.20
2023-05-24T15:54:52.756Z,29.10
2023-05-24T15:57:22.620Z,29.20
2023-05-24T15:59:52.922Z,29.20
2023-05-24T16:02:22.717Z,29.10
2023-05-24T16:04:57.009Z,29.10
2023-05-24T16:07:28.079Z,28.90
2023-05-24T16:09:58.090Z,28.70
2023-05-24T16:12:28.172Z,28.70
2023-05-24T16:14:59.435Z,28.60
2023-05-24T16:17:29.699Z,28.70
2023-05-24T16:20:00.748Z,28.80
2023-05-24T16:22:30.983Z,28.80
2023-05-24T16:25:00.882Z,28.70
2023-05-24T16:27:30.873Z,28.60
2023-05-24T16:30:00.667Z,28.60
2023-05-24T16:32:31.032Z,28.60
2023-05-24T16:35:00.936Z,28.50
2023-05-24T16:37:31.089Z,28.50
2023-05-24T16:40:01.128Z,28.60
2023-05-24T16:42:31.195Z,28.70
2023-05-24T16:45:01.216Z,28.70
2023-05-24T16:47:31.551Z,28.70
2023-05-24T16:50:01.457Z,28.70
2023-05-24T16:52:31.401Z,28.50
2023-05-24T16:55:01.296Z,28.70
2023-05-24T16:57:31.447Z,28.70
2023-05-24T17:00:01.253Z,28.60
2023-05-24T17:02:31.414Z,28.60
2023-05-24T17:05:01.322Z,28.60
2023-05-24T17:07:31.789Z,28.50
2023-05-24T17:10:01.914Z,28.50
2023-05-24T17:12:32.271Z,28.60
2023-05-24T17:15:02.166Z,28.60
2023-05-24T17:17:32.142Z,28.60
2023-05-24T17:20:02.553Z,28.70
2023-05-24T17:22:32.858Z,28.60
2023-05-24T17:25:02.676Z,28.60
2023-05-24T17:27:33.088Z,28.60
2023-05-24T17:30:03.207Z,28.50
2023-05-24T17:32:33.037Z,28.50
2023-05-24T17:35:03.025Z,28.30
2023-05-24T17:37:32.890Z,28.30
2023-05-24T17:40:03.215Z,28.30
2023-05-24T17:42:33.566Z,28.40
2023-05-24T17:45:03.554Z,28.40
2023-05-24T17:47:33.431Z,28.30
2023-05-24T17:50:03.676Z,28.30
2023-05-24T17:52:33.537Z,28.30
2023-05-24T17:55:04.344Z,28.50
2023-05-24T17:57:34.576Z,28.40
2023-05-24T18:00:04.504Z,28.40
2023-05-24T18:02:34.689Z,28.40
2023-05-24T18:05:04.932Z,28.30
2023-05-24T18:07:35.172Z,28.40
2023-05-24T18:10:06.886Z,28.30
2023-05-24T18:12:37.095Z,28.00
2023-05-24T18:15:07.915Z,28.00
2023-05-24T18:17:38.559Z,27.90
2023-05-24T18:20:09.468Z,27.90
2023-05-24T18:22:41.238Z,27.90
2023-05-24T18:25:11.859Z,28.00
2023-05-24T18:27:41.686Z,27.80
2023-05-24T18:30:12.571Z,27.80
2023-05-24T18:32:52.073Z,27.70
2023-05-24T18:35:26.613Z,27.80
2023-05-24T18:37:56.533Z,27.70
2023-05-24T18:40:26.987Z,27.70
2023-05-24T18:42:57.934Z,27.70
2023-05-24T18:45:27.695Z,27.80
2023-05-24T18:47:57.806Z,27.70
2023-05-24T18:50:27.646Z,27.70
2023-05-24T18:52:57.851Z,27.80
2023-05-24T18:55:27.768Z,27.90
2023-05-24T18:57:57.792Z,27.90
2023-05-24T19:00:27.621Z,27.90
2023-05-24T19:02:57.986Z,27.80
2023-05-24T19:05:27.889Z,27.90
2023-05-24T19:07:59.105Z,27.90
2023-05-24T19:10:29.108Z,27.90
2023-05-24T19:12:59.977Z,27.90
2023-05-24T19:15:30.292Z,27.90
2023-05-24T19:18:00.274Z,27.90
2023-05-24T19:20:30.322Z,27.70
2023-05-24T19:23:00.663Z,27.70
2023-05-24T19:25:32.655Z,27.70
2023-05-24T19:28:02.568Z,27.70
2023-05-24T19:30:32.371Z,27.70
2023-05-24T19:33:02.521Z,27.70
2023-05-24T19:35:32.330Z,27.70
2023-05-24T19:38:02.947Z,27.60
2023-05-24T19:40:33.022Z,27.60
2023-05-24T19:43:04.089Z,27.60
2023-05-24T19:45:34.139Z,27.50
2023-05-24T19:48:04.215Z,27.50
2023-05-24T19:50:34.426Z,27.60
2023-05-24T19:53:04.501Z,27.50
2023-05-24T19:55:34.437Z,27.50
2023-05-24T19:58:04.385Z,27.50
2023-05-24T20:00:35.263Z,27.50
2023-05-24T20:03:05.443Z,27.60
2023-05-24T20:05:35.373Z,27.50
2023-05-24T20:08:05.472Z,27.50
2023-05-24T20:10:37.801Z,27.50
2023-05-24T20:13:08.369Z,27.40
2023-05-24T20:15:38.100Z,27.40
2023-05-24T20:18:08.209Z,27.40
2023-05-24T20:20:38.959Z,27.40
2023-05-24T20:23:09.136Z,27.40
2023-05-24T20:25:39.166Z,27.40
2023-05-24T20:28:18.251Z,27.40
2023-05-24T20:30:56.022Z,27.50
2023-05-24T20:33:25.800Z,27.30
2023-05-24T20:35:55.912Z,27.40
2023-05-24T20:38:25.844Z,27.40
2023-05-24T20:40:56.090Z,27.30
2023-05-24T20:43:26.510Z,27.30
2023-05-24T20:45:56.820Z,27.20
2023-05-24T20:48:27.076Z,27.20
2023-05-24T20:50:57.398Z,27.20
2023-05-24T20:53:27.337Z,27.20
2023-05-24T20:55:58.176Z,27.20
2023-05-24T20:58:28.317Z,27.10
2023-05-24T21:00:58.273Z,27.10
2023-05-24T21:03:28.566Z,27.20
2023-05-24T21:05:58.446Z,27.10
2023-05-24T21:08:29.226Z,27.00
2023-05-24T21:10:59.006Z,27.00
2023-05-24T21:13:29.795Z,27.10
2023-05-24T21:15:59.577Z,26.90
2023-05-24T21:18:29.698Z,26.90
2023-05-24T21:20:59.407Z,27.00
2023-05-24T21:23:29.332Z,27.00
2023-05-24T21:25:59.153Z,27.00
2023-05-24T21:28:29.290Z,27.10
2023-05-24T21:30:59.060Z,27.10
2023-05-24T21:33:29.176Z,27.10
2023-05-24T21:36:00.011Z,27.20
2023-05-24T21:38:32.564Z,27.10
2023-05-24T21:41:02.731Z,26.90
2023-05-24T21:43:33.525Z,27.10
2023-05-24T21:46:03.622Z,27.10
2023-05-24T21:48:33.368Z,27.10
2023-05-24T21:51:03.286Z,27.10
2023-05-24T21:53:33.065Z,27.10
2023-05-24T21:56:04.183Z,27.10
2023-05-24T21:58:34.050Z,27.00
2023-05-24T22:01:03.688Z,27.10
2023-05-24T22:03:33.876Z,27.10
2023-05-24T22:06:03.702Z,27.10
2023-05-24T22:08:33.644Z,27.10
2023-05-24T22:11:03.294Z,27.10
2023-05-24T22:13:33.472Z,27.00
2023-05-24T22:16:03.460Z,27.00
2023-05-24T22:18:33.422Z,27.00
2023-05-24T22:21:03.701Z,27.00
2023-05-24T22:23:33.976Z,27.00
2023-05-24T22:26:03.776Z,26.70
2023-05-24T22:28:54.452Z,26.70
2023-05-24T22:31:25.497Z,26.60
2023-05-24T22:33:55.568Z,26.70
2023-05-24T22:36:25.562Z,26.70
2023-05-24T22:38:55.763Z,26.90
2023-05-24T22:41:26.069Z,26.90
2023-05-24T22:43:58.683Z,26.90
2023-05-24T22:46:28.579Z,26.90
2023-05-24T22:48:59.533Z,26.90
2023-05-24T22:51:30.108Z,26.80
2023-05-24T22:54:00.202Z,26.90
2023-05-24T22:56:30.054Z,26.90
2023-05-24T22:58:59.962Z,26.90
2023-05-24T23:01:29.812Z,26.90
2023-05-24T23:04:15.652Z,27.00
2023-05-24T23:06:53.732Z,27.00
2023-05-24T23:09:30.568Z,26.90
2023-05-24T23:12:00.536Z,26.80
2023-05-24T23:14:31.998Z,26.90
2023-05-24T23:17:03.999Z,26.90
2023-05-24T23:19:34.331Z,26.80
2023-05-24T23:22:04.914Z,26.80
2023-05-24T23:24:35.927Z,26.90
2023-05-24T23:27:07.777Z,26.80
2023-05-24T23:29:38.024Z,26.90
2023-05-24T23:32:09.250Z,26.90
2023-05-24T23:34:39.546Z,26.90
2023-05-24T23:37:10.316Z,26.90
2023-05-24T23:39:40.761Z,26.80
2023-05-24T23:42:10.712Z,26.80
2023-05-24T23:44:41.424Z,26.80
2023-05-24T23:47:11.664Z,26.90
2023-05-24T23:49:41.405Z,26.90
2023-05-24T23:52:12.166Z,27.00
2023-05-24T23:54:42.334Z,27.00
2023-05-24T23:57:12.091Z,27.00
2023-05-24T23:59:42.053Z,27.10
